Time;durP1;ratioP1;P1;durP2;ratioP2;P2;SDS_P1;SDS_P2;PMS_P1;PMS_P2;Temp;Humidity;BMP_temperature;BMP_pressure;BME280_temperature;BME280_humidity;BME280_pressure;Samples;Min_cycle;Max_cycle;Signal;HPM_P1;HPM_P2
2021/07/28 00:01:45;;;;;;;11.48;10.38;;;;;;;22.03;60.33;98711.76;2222172;80;21023;-80
2021/07/28 00:04:45;;;;;;;12.55;10.48;;;;;;;21.79;60.22;98702.84;2222388;80;20908;-80
2021/07/28 00:07:46;;;;;;;44.38;15.30;;;;;;;21.83;60.60;98700.48;2222157;80;20921;-79
2021/07/28 00:10:46;;;;;;;47.10;13.75;;;;;;;21.88;60.47;98701.19;2222330;80;21265;-80
2021/07/28 00:13:47;;;;;;;47.98;13.18;;;;;;;21.84;60.61;98702.22;2222223;80;20952;-80
2021/07/28 00:16:47;;;;;;;14.83;10.70;;;;;;;21.80;60.44;98706.78;2222061;80;20963;-80
2021/07/28 00:19:53;;;;;;;12.63;10.68;;;;;;;21.74;60.57;98704.80;2222034;80;20999;-79
2021/07/28 00:26:09;;;;;;;13.55;10.53;;;;;;;21.74;60.54;98695.05;2221982;80;20937;-80
2021/07/28 00:29:10;;;;;;;13.53;10.65;;;;;;;21.73;59.99;98696.42;2222380;80;21296;-80
2021/07/28 00:32:10;;;;;;;11.95;10.72;;;;;;;21.68;60.46;98695.72;2222508;80;21312;-80
2021/07/28 00:35:11;;;;;;;14.33;11.20;;;;;;;21.73;60.51;98698.63;2222462;80;20916;-80
2021/07/28 00:38:11;;;;;;;24.23;11.90;;;;;;;21.78;60.45;98693.14;2222413;80;20952;-80
2021/07/28 00:41:12;;;;;;;11.28;10.18;;;;;;;21.84;60.57;98688.94;2222551;80;20921;-79
2021/07/28 00:44:12;;;;;;;12.80;10.70;;;;;;;21.89;60.40;98686.52;2222212;80;20881;-79
2021/07/28 00:47:14;;;;;;;15.40;11.53;;;;;;;21.92;60.35;98682.88;2222229;80;21320;-80
2021/07/28 00:50:14;;;;;;;14.00;10.50;;;;;;;21.97;60.30;98680.06;2222376;80;21022;-79
2021/07/28 00:53:18;;;;;;;11.48;10.38;;;;;;;21.99;60.13;98681.73;2222432;80;20933;-79
2021/07/28 00:56:19;;;;;;;;;;;;;;;22.01;59.94;98680.35;2224847;80;21242;-80
2021/07/28 00:59:19;;;;;;;19.07;12.13;;;;;;;21.92;59.79;98678.90;2222228;80;20088;-80
2021/07/28 01:02:20;;;;;;;11.68;10.53;;;;;;;21.76;59.98;98676.39;2222064;80;20963;-79
2021/07/28 01:05:21;;;;;;;12.13;10.45;;;;;;;21.74;60.13;98675.58;2222387;80;20912;-79
2021/07/28 01:08:21;;;;;;;22.05;11.80;;;;;;;21.58;59.89;98669.91;2222252;80;20928;-80
2021/07/28 01:11:23;;;;;;;18.65;11.85;;;;;;;21.45;60.39;98669.48;2222144;80;20909;-81
2021/07/28 01:14:23;;;;;;;16.32;11.78;;;;;;;21.42;60.74;98666.06;2222611;80;20951;-79
2021/07/28 01:17:24;;;;;;;19.92;12.20;;;;;;;21.44;60.82;98668.20;2220738;78;21004;-79
2021/07/28 01:20:24;;;;;;;17.85;11.28;;;;;;;21.33;60.85;98667.25;2211902;81;20933;-80
2021/07/28 01:23:25;;;;;;;15.90;11.43;;;;;;;21.33;60.81;98662.39;2212154;81;20909;-79
2021/07/28 01:26:25;;;;;;;12.65;11.35;;;;;;;21.33;60.81;98662.39;2212130;81;20921;-80
2021/07/28 01:29:25;;;;;;;15.58;12.82;;;;;;;21.26;61.07;98659.08;2212118;81;20917;-79
2021/07/28 01:32:26;;;;;;;13.28;11.85;;;;;;;21.33;61.55;98660.61;2212102;81;20897;-80
2021/07/28 01:35:26;;;;;;;13.50;11.63;;;;;;;21.50;61.46;98674.16;2212064;81;21368;-80
2021/07/28 01:38:27;;;;;;;13.80;12.40;;;;;;;21.60;61.16;98670.27;2212027;81;20928;-79
2021/07/28 01:41:27;;;;;;;13.20;11.80;;;;;;;21.40;60.65;98669.23;2212043;81;20948;-79
2021/07/28 01:44:28;;;;;;;13.85;11.93;;;;;;;21.28;61.63;98669.19;2212072;81;20956;-80
2021/07/28 01:47:28;;;;;;;15.30;12.33;;;;;;;21.28;61.65;98666.53;2212046;81;21300;-80
2021/07/28 01:50:29;;;;;;;15.20;12.10;;;;;;;21.38;61.69;98663.10;2211929;81;21363;-80
2021/07/28 01:53:29;;;;;;;15.28;12.65;;;;;;;21.47;61.67;98655.69;2212092;81;20924;-79
2021/07/28 01:56:30;;;;;;;14.68;12.45;;;;;;;21.60;61.47;98655.66;2212183;81;20925;-80
2021/07/28 01:59:38;;;;;;;15.60;11.93;;;;;;;21.60;61.06;98649.02;2212125;81;20964;-81
2021/07/28 02:02:34;;;;;;;14.87;12.88;;;;;;;21.61;60.80;98651.21;2211303;80;20992;-79
2021/07/28 02:05:34;;;;;;;18.55;11.85;;;;;;;21.41;61.17;98651.05;2212190;81;20956;-80
2021/07/28 02:08:35;;;;;;;15.63;12.30;;;;;;;21.05;60.55;98650.48;2212252;81;20928;-80
2021/07/28 02:11:36;;;;;;;14.30;12.20;;;;;;;20.61;62.11;98652.77;2212031;81;20956;-81
2021/07/28 02:14:36;;;;;;;13.90;12.33;;;;;;;20.72;62.27;98658.59;2212178;81;20957;-81
2021/07/28 02:17:37;;;;;;;15.28;12.20;;;;;;;20.58;62.90;98655.52;2211937;80;21336;-78
2021/07/28 02:20:38;;;;;;;22.82;12.88;;;;;;;20.70;63.47;98655.59;2211803;81;20975;-80
2021/07/28 02:23:41;;;;;;;13.32;12.03;;;;;;;20.86;63.23;98659.05;2212047;81;20964;-80
2021/07/28 02:26:41;;;;;;;14.18;12.33;;;;;;;21.04;63.17;98648.75;2211863;81;20906;-79
2021/07/28 02:29:42;;;;;;;15.18;11.55;;;;;;;21.30;62.46;98652.29;2211991;81;20924;-79
2021/07/28 02:32:42;;;;;;;16.37;11.57;;;;;;;21.24;61.89;98644.53;2211844;81;20948;-80
2021/07/28 02:35:43;;;;;;;18.40;10.90;;;;;;;21.32;61.96;98650.04;2212031;81;21304;-78
2021/07/28 02:38:43;;;;;;;15.93;11.45;;;;;;;21.44;61.44;98646.50;2211789;81;20987;-79
2021/07/28 02:41:44;;;;;;;12.25;10.95;;;;;;;21.36;60.83;98647.69;2211420;81;20964;-79
2021/07/28 02:44:44;;;;;;;12.10;10.90;;;;;;;21.36;60.83;98647.69;2211943;81;20897;-79
2021/07/28 02:47:45;;;;;;;62.75;16.80;;;;;;;21.08;61.33;98655.23;2212056;81;20924;-80
2021/07/28 02:50:46;;;;;;;14.07;12.00;;;;;;;21.09;61.61;98654.77;2211721;81;20991;-79
2021/07/28 02:53:46;;;;;;;13.30;11.33;;;;;;;21.10;61.77;98656.50;2212107;81;20929;-79
2021/07/28 02:56:47;;;;;;;15.15;10.75;;;;;;;21.22;61.38;98653.44;2212187;81;20980;-80
2021/07/28 02:59:47;;;;;;;14.50;11.05;;;;;;;21.20;60.85;98657.47;2212160;81;20960;-80
2021/07/28 03:02:48;;;;;;;12.20;10.82;;;;;;;21.19;60.96;98670.80;2212034;81;20909;-80
2021/07/28 03:05:48;;;;;;;11.75;10.55;;;;;;;21.14;60.72;98666.10;2212113;81;20967;-79
2021/07/28 03:08:49;;;;;;;11.97;10.72;;;;;;;21.07;60.95;98665.44;2212071;81;20976;-81
2021/07/28 03:11:49;;;;;;;13.53;11.43;;;;;;;21.14;60.81;98662.13;2212209;81;21300;-81
2021/07/28 03:14:49;;;;;;;12.95;9.90;;;;;;;21.19;60.91;98657.52;2212154;81;21316;-80
2021/07/28 03:17:50;;;;;;;12.35;10.88;;;;;;;21.23;60.46;98659.19;2213218;80;21016;-80
2021/07/28 03:20:50;;;;;;;11.03;9.90;;;;;;;21.28;60.59;98658.57;2222446;80;20983;-80
2021/07/28 03:23:51;;;;;;;16.02;11.08;;;;;;;21.41;60.31;98661.21;2222306;80;21284;-80
2021/07/28 03:26:51;;;;;;;13.22;10.25;;;;;;;21.34;59.77;98657.03;2222341;80;20956;-78
2021/07/28 03:29:52;;;;;;;11.80;10.53;;;;;;;21.24;60.37;98659.59;2222243;80;20904;-78
2021/07/28 03:32:52;;;;;;;25.82;20.95;;;;;;;21.13;60.00;98659.06;2221749;80;20928;-80
2021/07/28 03:35:53;;;;;;;14.25;11.80;;;;;;;21.02;59.95;98666.05;2221745;80;20975;-80
2021/07/28 03:38:53;;;;;;;12.05;10.72;;;;;;;20.84;60.04;98672.83;2222053;80;20944;-80
2021/07/28 03:41:54;;;;;;;15.50;11.03;;;;;;;20.90;60.17;98663.34;2222083;80;20968;-79
2021/07/28 03:44:54;;;;;;;19.52;10.28;;;;;;;20.87;59.83;98658.13;2221381;80;20913;-80
2021/07/28 03:47:55;;;;;;;13.43;10.72;;;;;;;20.56;60.48;98658.67;2221901;80;20972;-81
2021/07/28 03:50:55;;;;;;;14.18;11.05;;;;;;;20.38;61.19;98657.42;2222030;80;20995;-80
2021/07/28 03:53:56;;;;;;;13.93;12.10;;;;;;;20.73;61.48;98646.20;2222199;80;20975;-81
2021/07/28 03:56:57;;;;;;;16.20;11.35;;;;;;;20.99;61.17;98644.47;2222227;80;20928;-81
2021/07/28 03:59:57;;;;;;;21.20;11.95;;;;;;;21.16;61.09;98635.06;2222164;80;20967;-81
2021/07/28 04:02:58;;;;;;;22.15;13.20;;;;;;;21.28;61.29;98626.25;2222025;80;21003;-79
2021/07/28 04:05:58;;;;;;;17.52;12.95;;;;;;;21.41;61.52;98628.02;2221260;80;21596;-79
2021/07/28 04:08:59;;;;;;;437.57;47.38;;;;;;;21.54;61.81;98627.98;2221976;80;20948;-80
2021/07/28 04:11:59;;;;;;;237.05;27.93;;;;;;;21.60;62.07;98627.77;2221730;80;20941;-80
2021/07/28 04:15:00;;;;;;;102.12;20.30;;;;;;;21.73;62.05;98624.70;2221760;80;20909;-80
2021/07/28 04:18:00;;;;;;;91.50;18.45;;;;;;;21.74;62.83;98618.00;2220298;80;20995;-79
2021/07/28 04:21:01;;;;;;;41.75;15.48;;;;;;;21.84;62.99;98617.20;2211929;81;20972;-80
2021/07/28 04:24:01;;;;;;;52.55;16.20;;;;;;;21.98;62.84;98623.33;2211283;81;20943;-79
2021/07/28 04:27:02;;;;;;;39.45;14.98;;;;;;;22.11;62.76;98617.52;2211597;81;21325;-80
2021/07/28 04:30:02;;;;;;;24.87;13.93;;;;;;;22.25;62.96;98613.86;2211525;81;21300;-79
2021/07/28 04:33:03;;;;;;;34.18;14.20;;;;;;;22.50;62.66;98606.25;2211330;81;20940;-81
2021/07/28 04:36:04;;;;;;;23.22;14.30;;;;;;;22.66;62.32;98610.52;2211771;81;20941;-80
2021/07/28 04:39:04;;;;;;;16.55;13.50;;;;;;;22.94;61.90;98611.61;2211559;81;20959;-79
2021/07/28 04:42:05;;;;;;;19.12;13.05;;;;;;;23.11;61.44;98610.44;2211335;81;21007;-79
2021/07/28 04:45:06;;;;;;;17.45;13.38;;;;;;;23.28;61.25;98601.26;2211741;81;20897;-80
2021/07/28 04:48:06;;;;;;;18.45;13.40;;;;;;;23.41;61.21;98597.63;2211738;81;20936;-79
2021/07/28 04:51:07;;;;;;;19.05;13.60;;;;;;;23.56;61.04;98602.30;2211334;81;20995;-81
2021/07/28 04:54:07;;;;;;;15.93;14.13;;;;;;;23.65;61.38;98593.03;2211148;81;20917;-80
2021/07/28 04:57:08;;;;;;;21.77;14.70;;;;;;;23.60;61.71;98593.71;2210836;81;20964;-81
2021/07/28 05:00:08;;;;;;;21.17;14.40;;;;;;;23.76;61.70;98598.75;2211212;81;21340;-82
2021/07/28 05:03:09;;;;;;;18.62;14.73;;;;;;;23.95;61.45;98592.11;2211380;81;20925;-81
2021/07/28 05:06:10;;;;;;;17.15;14.60;;;;;;;24.00;61.67;98593.63;2211425;81;20964;-80
2021/07/28 05:09:12;;;;;;;18.95;14.20;;;;;;;24.26;62.03;98600.86;2211684;81;20984;-81
2021/07/28 05:12:12;;;;;;;17.15;14.80;;;;;;;24.41;61.69;98608.20;2212158;81;21337;-83
2021/07/28 05:15:13;;;;;;;19.87;15.68;;;;;;;24.61;61.69;98608.58;2211131;81;20905;-80
2021/07/28 05:18:13;;;;;;;23.32;15.00;;;;;;;24.83;60.99;98608.38;2212333;80;20952;-81
2021/07/28 05:21:14;;;;;;;29.12;14.58;;;;;;;24.97;60.50;98604.12;2220624;80;20956;-81
2021/07/28 05:24:15;;;;;;;17.57;13.25;;;;;;;24.99;60.44;98603.57;2221161;80;20930;-82
2021/07/28 05:27:16;;;;;;;21.30;14.05;;;;;;;25.04;60.07;98599.33;2221306;80;20936;-80
2021/07/28 05:30:16;;;;;;;29.63;14.53;;;;;;;25.01;60.06;98603.48;2221363;80;20980;-80
2021/07/28 05:33:17;;;;;;;81.05;16.65;;;;;;;25.15;59.98;98606.36;2221687;80;20917;-82
2021/07/28 05:36:17;;;;;;;22.27;14.03;;;;;;;25.27;59.35;98601.72;2222090;80;20932;-81
2021/07/28 05:39:18;;;;;;;22.30;13.85;;;;;;;25.31;59.27;98597.95;2221921;80;20965;-80
2021/07/28 05:42:18;;;;;;;19.65;12.88;;;;;;;25.51;59.06;98590.70;2222440;80;20904;-83
2021/07/28 05:45:19;;;;;;;22.07;14.15;;;;;;;25.67;58.62;98602.34;2222208;80;21305;-83
2021/07/28 05:48:19;;;;;;;15.80;12.80;;;;;;;25.67;58.23;98599.67;2221864;80;21312;-84
2021/07/28 05:51:20;;;;;;;15.98;12.55;;;;;;;25.64;58.34;98601.13;2221607;80;20973;-82
2021/07/28 05:54:20;;;;;;;20.97;13.60;;;;;;;25.73;58.47;98602.02;2221937;80;20971;-81
2021/07/28 05:57:21;;;;;;;166.77;22.30;;;;;;;25.85;58.07;98596.01;2222041;80;21293;-82
2021/07/28 06:00:21;;;;;;;18.95;13.22;;;;;;;25.88;57.46;98589.63;2222265;80;21304;-81
2021/07/28 06:03:22;;;;;;;21.97;12.45;;;;;;;25.87;57.63;98584.75;2221676;80;20925;-83
2021/07/28 06:06:26;;;;;;;20.32;12.68;;;;;;;26.14;57.55;98591.77;2221277;80;20932;-82
2021/07/28 06:09:25;;;;;;;19.73;11.95;;;;;;;26.40;56.98;98576.97;2221488;80;20944;-83
2021/07/28 06:12:26;;;;;;;17.45;11.68;;;;;;;26.39;56.26;98575.72;2221143;80;21297;-84
2021/07/28 06:15:26;;;;;;;14.30;11.45;;;;;;;26.39;56.46;98575.72;2221497;80;20920;-82
2021/07/28 06:18:27;;;;;;;13.68;11.10;;;;;;;26.46;55.93;98579.30;2220373;80;21082;-81
2021/07/28 06:21:27;;;;;;;12.68;11.45;;;;;;;26.65;56.42;98585.33;2211309;81;20992;-84
2021/07/28 06:24:28;;;;;;;14.28;11.45;;;;;;;26.76;55.40;98590.53;2211626;81;20996;-82
2021/07/28 06:27:28;;;;;;;14.35;11.53;;;;;;;26.93;55.43;98585.09;2210831;81;20889;-79
2021/07/28 06:30:29;;;;;;;18.45;11.35;;;;;;;27.19;55.02;98592.48;2210629;81;20901;-80
2021/07/28 06:33:29;;;;;;;14.05;11.80;;;;;;;27.41;55.22;98587.17;2211008;81;20968;-80
2021/07/28 06:36:32;;;;;;;12.77;11.07;;;;;;;27.50;54.20;98584.80;2188650;81;20897;-81
2021/07/28 06:39:32;;;;;;;16.42;11.68;;;;;;;27.54;54.28;98585.47;2211108;81;21368;-81
2021/07/28 06:42:33;;;;;;;12.23;10.93;;;;;;;27.72;53.41;98580.34;2210564;81;20893;-80
2021/07/28 06:45:33;;;;;;;14.78;11.03;;;;;;;27.86;52.35;98572.81;2210635;81;21023;-81
2021/07/28 06:48:34;;;;;;;20.68;11.53;;;;;;;27.96;51.85;98573.95;2210603;81;20961;-80
2021/07/28 06:51:34;;;;;;;17.82;10.43;;;;;;;28.12;51.21;98569.81;2211411;81;21406;-81
2021/07/28 06:54:35;;;;;;;11.35;10.28;;;;;;;28.13;51.12;98571.06;2211311;81;20956;-80
2021/07/28 06:57:35;;;;;;;11.45;9.48;;;;;;;28.21;50.75;98559.84;2211679;81;20937;-79
2021/07/28 07:00:36;;;;;;;16.37;10.08;;;;;;;28.21;50.34;98558.02;2211721;81;21025;-81
2021/07/28 07:03:39;;;;;;;15.75;9.43;;;;;;;28.32;49.78;98553.80;2211874;81;20916;-81
2021/07/28 07:06:40;;;;;;;13.78;9.20;;;;;;;28.43;49.84;98542.75;2211605;80;20940;-79
2021/07/28 07:09:40;;;;;;;10.55;8.90;;;;;;;28.48;49.78;98547.81;2211512;80;20956;-80
2021/07/28 07:12:41;;;;;;;19.62;8.85;;;;;;;28.60;49.85;98546.14;2211948;80;20967;-81
2021/07/28 07:15:44;;;;;;;14.40;8.23;;;;;;;28.70;48.99;98544.61;2211668;80;21431;-81
2021/07/28 07:18:45;;;;;;;13.35;8.73;;;;;;;28.82;48.36;98547.33;2213193;80;20963;-81
2021/07/28 07:21:45;;;;;;;21.42;8.30;;;;;;;28.84;48.04;98541.89;2221522;80;21035;-80
2021/07/28 07:24:52;;;;;;;10.93;7.62;;;;;;;28.98;48.29;98534.23;2221623;80;20944;-81
2021/07/28 07:27:53;;;;;;;12.85;7.80;;;;;;;29.14;47.32;98534.42;2221855;80;20923;-79
2021/07/28 07:30:54;;;;;;;8.58;6.97;;;;;;;29.14;46.72;98533.08;2222144;80;20940;-80
2021/07/28 07:33:54;;;;;;;32.15;8.60;;;;;;;29.29;45.29;98534.34;2222027;80;20940;-81
2021/07/28 07:36:55;;;;;;;18.27;6.75;;;;;;;29.31;44.58;98529.71;2221371;80;20920;-81
2021/07/28 07:39:56;;;;;;;19.57;8.35;;;;;;;29.36;44.65;98534.28;2221212;80;20994;-80
2021/07/28 07:42:56;;;;;;;12.90;7.55;;;;;;;29.43;43.94;98529.75;2222006;80;20968;-80
2021/07/28 07:45:57;;;;;;;11.18;7.20;;;;;;;29.52;43.60;98524.25;2221884;80;21304;-82
2021/07/28 07:48:57;;;;;;;10.40;6.97;;;;;;;29.48;43.52;98522.25;2222141;80;20901;-81
2021/07/28 07:51:58;;;;;;;8.63;6.25;;;;;;;29.73;43.31;98516.00;2221729;80;21010;-80
2021/07/28 07:54:58;;;;;;;10.40;5.70;;;;;;;29.89;43.38;98513.55;2222164;80;20956;-81
2021/07/28 07:57:59;;;;;;;10.85;5.83;;;;;;;29.95;42.58;98517.14;2221258;80;20936;-81
2021/07/28 08:00:59;;;;;;;12.65;5.72;;;;;;;29.94;41.68;98505.52;2221495;80;20928;-81
2021/07/28 08:04:02;;;;;;;9.80;6.80;;;;;;;30.01;41.35;98507.28;2190738;80;20928;-82
2021/07/28 08:07:02;;;;;;;12.28;6.00;;;;;;;30.05;41.58;98501.59;2221729;80;20912;-81
2021/07/28 08:10:03;;;;;;;18.95;6.65;;;;;;;30.25;42.48;98510.90;2221915;80;20909;-81
2021/07/28 08:13:03;;;;;;;11.93;6.80;;;;;;;30.41;41.04;98510.66;2221954;80;20931;-79
2021/07/28 08:16:06;;;;;;;13.35;6.37;;;;;;;30.23;40.99;98502.56;2221722;80;20963;-83
2021/07/28 08:19:07;;;;;;;57.73;11.03;;;;;;;30.34;41.23;98504.83;2222087;80;21008;-82
2021/07/28 08:22:07;;;;;;;12.45;6.33;;;;;;;30.38;41.27;98498.77;2221840;80;21023;-82
2021/07/28 08:25:08;;;;;;;11.10;6.97;;;;;;;30.46;41.65;98495.02;2221871;80;20931;-81
2021/07/28 08:28:08;;;;;;;8.95;7.60;;;;;;;30.55;41.53;98500.20;2222104;80;20920;-81
2021/07/28 08:31:09;;;;;;;6.72;6.12;;;;;;;30.53;40.89;98501.66;2221932;80;20944;-82
2021/07/28 08:34:12;;;;;;;7.40;6.47;;;;;;;30.59;40.48;98500.37;2222260;80;20936;-81
2021/07/28 08:37:13;;;;;;;7.37;6.60;;;;;;;30.67;40.80;98499.30;2221885;80;21024;-83
2021/07/28 08:40:14;;;;;;;10.63;5.97;;;;;;;30.66;41.03;98502.97;2222113;80;21043;-84
2021/07/28 08:43:17;;;;;;;9.15;6.05;;;;;;;30.87;41.42;98504.53;2221679;80;20932;-83
2021/07/28 08:46:18;;;;;;;11.00;6.40;;;;;;;30.97;40.08;98506.40;2221844;80;20901;-83
2021/07/28 08:49:18;;;;;;;14.87;6.78;;;;;;;30.89;41.49;98502.08;2222059;80;21295;-82
2021/07/28 08:52:19;;;;;;;7.42;5.50;;;;;;;30.98;42.10;98501.87;2222155;80;21403;-83
2021/07/28 08:55:21;;;;;;;7.95;6.10;;;;;;;31.05;40.29;98497.23;2222168;80;20935;-83
2021/07/28 09:01:26;;;;;;;8.23;6.15;;;;;;;31.22;40.61;98483.00;2167352;80;20899;-81
2021/07/28 09:04:26;;;;;;;9.48;5.40;;;;;;;31.30;39.97;98485.46;2221800;80;21367;-83
2021/07/28 09:07:27;;;;;;;10.28;6.15;;;;;;;31.59;38.10;98482.30;2220862;80;20967;-83
2021/07/28 09:10:28;;;;;;;8.63;6.35;;;;;;;31.84;38.27;98478.03;2221395;80;20956;-83
2021/07/28 09:13:29;;;;;;;11.90;5.58;;;;;;;31.88;38.15;98484.89;2220936;80;21003;-81
2021/07/28 09:16:29;;;;;;;9.80;5.28;;;;;;;31.95;37.25;98478.02;2220516;80;21588;-80
2021/07/28 09:19:30;;;;;;;7.15;5.67;;;;;;;32.17;37.20;98476.29;2218066;80;20969;-81
2021/07/28 09:22:30;;;;;;;48.40;9.23;;;;;;;32.29;36.26;98480.71;2210970;81;21042;-81
2021/07/28 09:25:34;;;;;;;7.08;5.35;;;;;;;31.91;37.40;98485.13;2211014;81;20932;-81
2021/07/28 09:28:33;;;;;;;9.03;5.65;;;;;;;31.88;37.85;98482.20;2210935;81;20976;-80
2021/07/28 09:31:34;;;;;;;7.85;6.00;;;;;;;31.81;37.68;98477.42;2210684;81;20929;-81
2021/07/28 09:34:34;;;;;;;18.37;6.00;;;;;;;31.67;37.80;98485.23;2211112;80;21273;-83
2021/07/28 09:37:35;;;;;;;12.45;5.85;;;;;;;31.73;37.51;98479.39;2211282;81;21337;-82
2021/07/28 09:40:35;;;;;;;13.48;6.67;;;;;;;32.06;36.41;98474.44;2211629;80;20968;-82
2021/07/28 09:43:36;;;;;;;8.73;5.80;;;;;;;32.16;36.88;98478.63;2211969;80;20952;-83
2021/07/28 09:46:39;;;;;;;7.30;5.40;;;;;;;32.53;35.15;98470.56;2211750;80;20996;-84
2021/07/28 09:49:39;;;;;;;;;;;;;;;32.76;35.34;98463.22;2214086;81;21321;-83
2021/07/28 09:52:40;;;;;;;9.63;5.78;;;;;;;32.90;34.80;98467.48;2211236;80;20125;-81
2021/07/28 09:55:40;;;;;;;12.88;5.87;;;;;;;33.13;35.18;98464.17;2210722;81;20912;-82
2021/07/28 09:58:41;;;;;;;15.83;5.97;;;;;;;33.32;34.56;98460.77;2210489;80;20932;-81
2021/07/28 10:01:41;;;;;;;7.20;5.60;;;;;;;33.34;33.98;98463.70;2210893;80;21115;-81
2021/07/28 10:04:42;;;;;;;7.92;5.03;;;;;;;33.31;34.05;98462.61;2211115;80;21293;-82
2021/07/28 10:07:42;;;;;;;10.30;5.90;;;;;;;33.29;33.66;98463.20;2210618;80;20897;-81
2021/07/28 10:10:43;;;;;;;10.13;5.65;;;;;;;33.48;33.94;98467.89;2210639;80;20928;-81
2021/07/28 10:13:44;;;;;;;8.30;5.58;;;;;;;33.67;33.53;98463.06;2211422;81;20956;-81
2021/07/28 10:16:44;;;;;;;10.58;5.53;;;;;;;33.33;33.42;98458.42;2211222;80;20940;-81
2021/07/28 10:19:45;;;;;;;8.13;5.30;;;;;;;32.91;33.75;98461.08;2211365;80;20964;-81
2021/07/28 10:22:45;;;;;;;8.00;4.90;;;;;;;32.78;34.06;98455.86;2211018;80;21039;-83
2021/07/28 10:25:46;;;;;;;9.25;5.55;;;;;;;32.85;34.14;98456.20;2210808;80;21126;-81
2021/07/28 10:28:46;;;;;;;9.80;5.78;;;;;;;32.94;34.47;98456.27;2211225;80;20944;-81
2021/07/28 10:31:47;;;;;;;7.85;5.80;;;;;;;33.01;34.63;98455.28;2210596;80;20976;-81
2021/07/28 10:34:48;;;;;;;22.77;6.95;;;;;;;33.13;34.33;98454.71;2211397;80;20937;-80
2021/07/28 10:37:48;;;;;;;12.93;5.67;;;;;;;33.35;33.73;98448.32;2210699;80;20976;-82
2021/07/28 10:40:50;;;;;;;13.78;6.08;;;;;;;33.30;34.42;98446.52;2211343;80;20991;-80
2021/07/28 10:43:50;;;;;;;10.98;5.60;;;;;;;33.17;34.62;98448.05;2211715;81;20931;-80
2021/07/28 10:46:51;;;;;;;21.68;6.72;;;;;;;33.15;35.04;98450.89;2211891;80;20905;-82
2021/07/28 10:49:54;;;;;;;8.70;5.80;;;;;;;33.27;35.17;98446.25;2211696;80;21228;-82
2021/07/28 10:52:54;;;;;;;31.73;7.92;;;;;;;33.36;34.41;98452.25;2211314;81;21023;-81
2021/07/28 10:55:55;;;;;;;26.90;7.65;;;;;;;33.32;34.67;98448.59;2210569;81;21325;-81
2021/07/28 10:58:55;;;;;;;10.82;5.40;;;;;;;33.24;34.76;98450.08;2210951;80;21301;-82
2021/07/28 11:01:56;;;;;;;23.22;7.30;;;;;;;33.13;34.51;98453.36;2210830;81;21372;-82
2021/07/28 11:04:56;;;;;;;29.27;7.45;;;;;;;33.31;33.67;98445.03;2211560;81;20909;-81
2021/07/28 11:07:57;;;;;;;20.35;5.87;;;;;;;33.66;33.27;98445.97;2210989;80;20932;-80
2021/07/28 11:10:58;;;;;;;16.27;5.92;;;;;;;33.85;32.37;98445.25;2211307;80;21269;-82
2021/07/28 11:13:58;;;;;;;8.20;5.22;;;;;;;33.90;32.72;98444.34;2211642;81;20964;-80
2021/07/28 11:16:59;;;;;;;13.28;5.40;;;;;;;33.99;32.12;98446.20;2211292;80;20916;-82
2021/07/28 11:19:59;;;;;;;11.38;5.40;;;;;;;34.03;32.79;98446.79;2213716;80;20968;-81
2021/07/28 11:23:00;;;;;;;7.75;4.67;;;;;;;33.98;32.48;98449.05;2221837;80;20964;-81
2021/07/28 11:26:00;;;;;;;9.68;5.08;;;;;;;34.03;32.14;98444.94;2222294;80;20939;-82
2021/07/28 11:29:01;;;;;;;12.73;5.70;;;;;;;33.93;31.99;98442.70;2222544;80;20931;-82
2021/07/28 11:32:02;;;;;;;23.55;6.12;;;;;;;34.13;31.81;98434.98;2222108;80;21401;-80
2021/07/28 11:35:02;;;;;;;10.48;4.97;;;;;;;34.27;31.11;98435.07;2222040;80;20968;-81
2021/07/28 11:38:03;;;;;;;9.13;5.45;;;;;;;33.96;31.36;98430.23;2221826;80;20925;-81
2021/07/28 11:41:03;;;;;;;10.58;5.55;;;;;;;33.84;31.33;98426.80;2222771;80;20940;-82
2021/07/28 11:44:04;;;;;;;19.30;5.83;;;;;;;33.93;31.77;98420.19;2222242;80;20948;-82
2021/07/28 11:47:04;;;;;;;7.83;4.90;;;;;;;34.05;31.44;98416.36;2222306;80;21336;-81
2021/07/28 11:50:05;;;;;;;8.73;5.33;;;;;;;34.23;30.57;98418.74;2222088;80;20980;-81
2021/07/28 11:53:06;;;;;;;12.73;5.87;;;;;;;34.13;31.41;98414.66;2222292;80;21269;-81
2021/07/28 11:56:09;;;;;;;11.53;5.30;;;;;;;34.26;31.39;98418.46;2222156;80;20928;-82
2021/07/28 11:59:10;;;;;;;9.20;5.85;;;;;;;34.39;31.07;98410.09;2222062;80;21046;-81
2021/07/28 12:02:10;;;;;;;11.57;5.70;;;;;;;34.35;31.42;98419.50;2222068;80;21360;-82
2021/07/28 12:05:11;;;;;;;6.97;5.35;;;;;;;34.52;31.18;98412.52;2222168;80;20963;-81
2021/07/28 12:08:11;;;;;;;12.78;5.85;;;;;;;34.57;30.88;98406.16;2221726;80;20968;-81
2021/07/28 12:11:12;;;;;;;28.50;7.20;;;;;;;34.92;30.67;98406.97;2221437;80;20967;-81
2021/07/28 12:14:12;;;;;;;11.20;5.47;;;;;;;35.23;30.38;98404.39;2221223;80;20928;-80
2021/07/28 12:17:13;;;;;;;12.28;5.65;;;;;;;35.41;30.38;98397.20;2221898;80;20928;-80
2021/07/28 12:20:16;;;;;;;11.05;5.62;;;;;;;35.52;29.76;98399.38;2221590;80;21004;-81
2021/07/28 12:23:16;;;;;;;8.55;5.75;;;;;;;35.28;29.66;98402.08;2222110;80;21043;-83
2021/07/28 12:26:16;;;;;;;8.10;4.80;;;;;;;34.41;30.36;98395.40;2222066;80;20928;-82
2021/07/28 12:29:17;;;;;;;11.35;4.75;;;;;;;34.53;30.82;98385.27;2221483;80;20951;-80
2021/07/28 12:32:17;;;;;;;10.80;5.28;;;;;;;34.93;30.41;98385.63;2221373;80;20975;-80
2021/07/28 12:35:17;;;;;;;15.53;5.37;;;;;;;35.01;30.49;98383.04;2221217;80;21371;-81
2021/07/28 12:38:20;;;;;;;;;;;;;;;35.03;29.90;98383.25;2192035;80;21360;-78
2021/07/28 12:41:23;;;;;;;13.08;5.30;;;;;;;35.08;29.82;98376.87;2221355;80;20386;-81
2021/07/28 12:44:23;;;;;;;22.35;5.33;;;;;;;35.03;29.71;98374.26;2220578;80;21054;-80
2021/07/28 12:47:24;;;;;;;13.18;5.33;;;;;;;34.93;29.33;98374.78;2220343;80;20933;-81
2021/07/28 12:50:24;;;;;;;18.17;5.50;;;;;;;34.94;29.50;98371.06;2220719;80;20948;-80
2021/07/28 12:53:25;;;;;;;11.22;5.08;;;;;;;34.88;29.70;98367.59;2221324;80;20936;-81
2021/07/28 12:56:25;;;;;;;10.10;5.35;;;;;;;34.89;29.94;98372.02;2221741;80;20933;-81
2021/07/28 12:59:26;;;;;;;10.88;5.35;;;;;;;34.73;29.99;98363.09;2221371;80;20983;-82
2021/07/28 13:02:26;;;;;;;10.32;5.58;;;;;;;34.16;30.73;98360.72;2220944;80;21059;-82
2021/07/28 13:05:27;;;;;;;11.28;5.30;;;;;;;34.02;31.44;98361.98;2220289;80;21344;-83
2021/07/28 13:08:28;;;;;;;12.10;6.15;;;;;;;34.25;31.03;98350.38;2220652;80;21327;-80
2021/07/28 13:11:28;;;;;;;14.65;5.62;;;;;;;34.31;31.08;98344.89;2220303;80;21606;-82
2021/07/28 13:14:28;;;;;;;10.55;4.80;;;;;;;34.78;30.70;98348.10;2220331;80;20909;-82
2021/07/28 13:17:29;;;;;;;13.60;5.70;;;;;;;35.00;29.99;98349.64;2220991;80;20936;-82
2021/07/28 13:20:29;;;;;;;7.15;4.97;;;;;;;35.03;30.09;98350.70;2218296;80;20940;-81
2021/07/28 13:23:30;;;;;;;10.48;4.97;;;;;;;35.21;29.60;98344.00;2211008;80;20916;-82
2021/07/28 13:26:31;;;;;;;8.15;4.85;;;;;;;35.13;29.80;98345.24;2211275;81;20961;-82
2021/07/28 13:29:31;;;;;;;9.88;5.30;;;;;;;35.02;28.74;98335.94;2211493;80;20972;-82
2021/07/28 13:32:32;;;;;;;9.63;4.65;;;;;;;34.96;29.03;98344.16;2211281;80;21011;-82
2021/07/28 13:35:32;;;;;;;15.98;5.58;;;;;;;34.96;29.54;98335.17;2211245;80;20936;-83
2021/07/28 13:38:36;;;;;;;13.60;5.40;;;;;;;35.13;29.57;98328.97;2211535;80;20996;-82
2021/07/28 13:41:36;;;;;;;9.85;5.28;;;;;;;35.23;28.51;98318.93;2211703;80;20968;-82
2021/07/28 13:44:39;;;;;;;10.15;4.62;;;;;;;34.97;29.25;98320.61;2211819;80;20941;-82
2021/07/28 13:47:43;;;;;;;11.10;4.58;;;;;;;34.59;30.04;98316.94;2211570;80;20976;-82
2021/07/28 13:50:41;;;;;;;10.93;5.33;;;;;;;34.38;29.65;98321.67;2211263;80;20997;-80
2021/07/28 13:53:42;;;;;;;17.62;4.95;;;;;;;34.42;30.28;98309.05;2211558;80;20897;-84
2021/07/28 13:56:43;;;;;;;9.50;4.58;;;;;;;34.58;29.98;98311.16;2211727;81;21336;-81
2021/07/28 13:59:43;;;;;;;11.38;4.83;;;;;;;34.81;30.07;98307.64;2211541;81;20991;-82
2021/07/28 14:02:44;;;;;;;7.67;4.72;;;;;;;34.81;28.53;98303.58;2211226;80;21043;-85
2021/07/28 14:05:45;;;;;;;8.30;5.20;;;;;;;34.92;29.32;98300.72;2211690;80;20937;-82